Argyle, Michigan
Current Conditions -  °F | °C
As of 5:55 PM on Thursday 18 Dec 2014 (Local Time) from KBAX Reporting Station
Overcast Overcast  
Wind Chill: -8°   Ceiling: 1200
Heat Index: -3°   Visibility: 10mi
Dew Point: -5°   Wind: 7mph
Humidity: 88%   Direction: 350°N
Pressure: 30.18"   Gusts: NA
Location:  43.56°N, 82.94°W
Report Text: KBAX 182255Z AUTO 35006KT 10SM OVC012 M03/M05 A3018 RMK AO2 T10331050
Loading
Personal Weather Stations






























Interactive Weather Map New forecast layout! Learn more

10-Day Weather Forecast

Advertisements
Track Severe Weather on mobile